sensor_id;sensor_type;location;lat;lon;timestamp;pressure;altitude;pressure_sealevel;temperature;humidity
62632;BME280;48703;51.248;-0.546;2023-03-14T00:00:34;98123;;;9.62;92.01
62632;BME280;48703;51.248;-0.546;2023-03-14T00:03:36;98120;;;9.61;92.29
62632;BME280;48703;51.248;-0.546;2023-03-14T00:06:38;98122;;;9.61;92.19
62632;BME280;48703;51.248;-0.546;2023-03-14T00:09:40;98119;;;9.61;92.51
62632;BME280;48703;51.248;-0.546;2023-03-14T00:12:43;98121;;;9.62;92.20
62632;BME280;48703;51.248;-0.546;2023-03-14T00:15:45;98125;;;9.61;92.34
62632;BME280;48703;51.248;-0.546;2023-03-14T00:18:47;98130;;;9.61;92.38
62632;BME280;48703;51.248;-0.546;2023-03-14T00:21:49;98131;;;9.61;92.57
62632;BME280;48703;51.248;-0.546;2023-03-14T00:24:51;98131;;;9.61;92.47
62632;BME280;48703;51.248;-0.546;2023-03-14T00:27:53;98134;;;9.62;92.60
62632;BME280;48703;51.248;-0.546;2023-03-14T00:30:55;98134;;;9.61;92.53
62632;BME280;48703;51.248;-0.546;2023-03-14T00:33:57;98137;;;9.62;92.85
62632;BME280;48703;51.248;-0.546;2023-03-14T00:36:59;98141;;;9.62;92.97
62632;BME280;48703;51.248;-0.546;2023-03-14T00:40:01;98144;;;9.61;93.16
62632;BME280;48703;51.248;-0.546;2023-03-14T00:43:03;98148;;;9.59;93.35
62632;BME280;48703;51.248;-0.546;2023-03-14T00:46:05;98154;;;9.59;93.33
62632;BME280;48703;51.248;-0.546;2023-03-14T00:49:07;98156;;;9.58;93.67
62632;BME280;48703;51.248;-0.546;2023-03-14T00:52:09;98157;;;9.58;94.02
62632;BME280;48703;51.248;-0.546;2023-03-14T00:55:11;98158;;;9.56;93.91
62632;BME280;48703;51.248;-0.546;2023-03-14T00:58:13;98163;;;9.56;94.03
62632;BME280;48703;51.248;-0.546;2023-03-14T01:01:15;98169;;;9.56;94.35
62632;BME280;48703;51.248;-0.546;2023-03-14T01:04:17;98176;;;9.55;94.84
62632;BME280;48703;51.248;-0.546;2023-03-14T01:07:19;98197;;;9.54;94.88
62632;BME280;48703;51.248;-0.546;2023-03-14T01:10:21;98265;;;9.53;95.97
62632;BME280;48703;51.248;-0.546;2023-03-14T01:13:23;98308;;;9.20;91.47
62632;BME280;48703;51.248;-0.546;2023-03-14T01:16:28;98323;;;8.90;90.13
62632;BME280;48703;51.248;-0.546;2023-03-14T01:19:27;98331;;;8.59;90.75
62632;BME280;48703;51.248;-0.546;2023-03-14T01:22:29;98346;;;8.33;92.04
62632;BME280;48703;51.248;-0.546;2023-03-14T01:25:31;98352;;;8.18;91.34
62632;BME280;48703;51.248;-0.546;2023-03-14T01:28:33;98367;;;8.08;90.62
62632;BME280;48703;51.248;-0.546;2023-03-14T01:31:35;98379;;;7.97;90.30
62632;BME280;48703;51.248;-0.546;2023-03-14T01:34:37;98393;;;7.87;90.64
62632;BME280;48703;51.248;-0.546;2023-03-14T01:37:39;98409;;;7.77;90.45
62632;BME280;48703;51.248;-0.546;2023-03-14T01:40:42;98424;;;7.72;90.98
62632;BME280;48703;51.248;-0.546;2023-03-14T01:43:43;98434;;;7.70;91.09
62632;BME280;48703;51.248;-0.546;2023-03-14T01:46:45;98437;;;7.64;91.22
62632;BME280;48703;51.248;-0.546;2023-03-14T01:49:47;98444;;;7.61;91.01
62632;BME280;48703;51.248;-0.546;2023-03-14T01:52:49;98452;;;7.57;91.17
62632;BME280;48703;51.248;-0.546;2023-03-14T01:55:51;98461;;;7.50;92.05
62632;BME280;48703;51.248;-0.546;2023-03-14T01:58:53;98474;;;7.42;92.29
62632;BME280;48703;51.248;-0.546;2023-03-14T02:01:55;98478;;;7.41;92.53
62632;BME280;48703;51.248;-0.546;2023-03-14T02:04:57;98490;;;7.38;92.77
62632;BME280;48703;51.248;-0.546;2023-03-14T02:07:59;98496;;;7.37;92.18
62632;BME280;48703;51.248;-0.546;2023-03-14T02:11:01;98503;;;7.35;91.87
62632;BME280;48703;51.248;-0.546;2023-03-14T02:14:03;98516;;;7.36;91.64
62632;BME280;48703;51.248;-0.546;2023-03-14T02:17:05;98526;;;7.34;90.78
62632;BME280;48703;51.248;-0.546;2023-03-14T02:20:10;98537;;;7.32;90.03
62632;BME280;48703;51.248;-0.546;2023-03-14T02:23:09;98542;;;7.20;87.40
62632;BME280;48703;51.248;-0.546;2023-03-14T02:26:13;98545;;;7.13;86.89
62632;BME280;48703;51.248;-0.546;2023-03-14T02:29:13;98553;;;7.05;86.11
62632;BME280;48703;51.248;-0.546;2023-03-14T02:32:15;98561;;;7.02;84.94
62632;BME280;48703;51.248;-0.546;2023-03-14T02:35:18;98565;;;6.96;84.49
62632;BME280;48703;51.248;-0.546;2023-03-14T02:38:20;98583;;;6.93;84.77
62632;BME280;48703;51.248;-0.546;2023-03-14T02:41:21;98600;;;6.86;85.05
62632;BME280;48703;51.248;-0.546;2023-03-14T02:44:23;98612;;;6.85;86.12
62632;BME280;48703;51.248;-0.546;2023-03-14T02:47:26;98620;;;6.79;85.93
62632;BME280;48703;51.248;-0.546;2023-03-14T02:50:29;98628;;;6.72;83.33
62632;BME280;48703;51.248;-0.546;2023-03-14T02:53:30;98634;;;6.68;83.27
62632;BME280;48703;51.248;-0.546;2023-03-14T02:56:31;98639;;;6.62;83.59
62632;BME280;48703;51.248;-0.546;2023-03-14T02:59:33;98643;;;6.59;83.11
62632;BME280;48703;51.248;-0.546;2023-03-14T03:02:35;98655;;;6.53;83.39
62632;BME280;48703;51.248;-0.546;2023-03-14T03:05:37;98665;;;6.48;83.85
62632;BME280;48703;51.248;-0.546;2023-03-14T03:08:39;98674;;;6.42;83.90
62632;BME280;48703;51.248;-0.546;2023-03-14T03:11:41;98681;;;6.36;83.02
62632;BME280;48703;51.248;-0.546;2023-03-14T03:14:43;98688;;;6.29;82.97
62632;BME280;48703;51.248;-0.546;2023-03-14T03:17:45;98692;;;6.20;81.56
62632;BME280;48703;51.248;-0.546;2023-03-14T03:20:47;98702;;;6.14;81.92
62632;BME280;48703;51.248;-0.546;2023-03-14T03:23:49;98711;;;6.07;80.59
62632;BME280;48703;51.248;-0.546;2023-03-14T03:26:51;98720;;;5.99;79.67
62632;BME280;48703;51.248;-0.546;2023-03-14T03:29:53;98722;;;5.91;79.11
62632;BME280;48703;51.248;-0.546;2023-03-14T03:32:55;98725;;;5.84;79.68
62632;BME280;48703;51.248;-0.546;2023-03-14T03:35:57;98736;;;5.82;79.98
62632;BME280;48703;51.248;-0.546;2023-03-14T03:38:59;98740;;;5.77;78.74
62632;BME280;48703;51.248;-0.546;2023-03-14T03:42:01;98751;;;5.72;79.45
62632;BME280;48703;51.248;-0.546;2023-03-14T03:45:04;98760;;;5.67;79.41
62632;BME280;48703;51.248;-0.546;2023-03-14T03:48:05;98767;;;5.61;78.77
62632;BME280;48703;51.248;-0.546;2023-03-14T03:51:10;98774;;;5.55;77.90
62632;BME280;48703;51.248;-0.546;2023-03-14T03:54:10;98787;;;5.47;78.92
62632;BME280;48703;51.248;-0.546;2023-03-14T03:57:11;98790;;;5.41;77.08
62632;BME280;48703;51.248;-0.546;2023-03-14T04:00:13;98809;;;5.36;76.95
62632;BME280;48703;51.248;-0.546;2023-03-14T04:03:15;98813;;;5.30;75.82
62632;BME280;48703;51.248;-0.546;2023-03-14T04:06:17;98812;;;5.26;77.04
62632;BME280;48703;51.248;-0.546;2023-03-14T04:09:19;98829;;;5.23;76.49
62632;BME280;48703;51.248;-0.546;2023-03-14T04:12:21;98835;;;5.19;76.27
62632;BME280;48703;51.248;-0.546;2023-03-14T04:15:23;98840;;;5.13;76.23
62632;BME280;48703;51.248;-0.546;2023-03-14T04:18:25;98848;;;5.11;76.57
62632;BME280;48703;51.248;-0.546;2023-03-14T04:21:27;98867;;;5.06;76.44
62632;BME280;48703;51.248;-0.546;2023-03-14T04:24:29;98884;;;5.00;75.43
62632;BME280;48703;51.248;-0.546;2023-03-14T04:27:31;98892;;;4.96;74.86
62632;BME280;48703;51.248;-0.546;2023-03-14T04:30:34;98892;;;4.94;75.50
62632;BME280;48703;51.248;-0.546;2023-03-14T04:33:36;98906;;;4.91;74.53
62632;BME280;48703;51.248;-0.546;2023-03-14T04:36:37;98920;;;4.86;73.91
62632;BME280;48703;51.248;-0.546;2023-03-14T04:39:39;98934;;;4.83;73.49
62632;BME280;48703;51.248;-0.546;2023-03-14T04:42:42;98939;;;4.81;74.18
62632;BME280;48703;51.248;-0.546;2023-03-14T04:45:44;98950;;;4.78;72.97
62632;BME280;48703;51.248;-0.546;2023-03-14T04:48:46;98964;;;4.75;73.44
62632;BME280;48703;51.248;-0.546;2023-03-14T04:51:48;98974;;;4.73;73.19
62632;BME280;48703;51.248;-0.546;2023-03-14T04:54:50;98979;;;4.70;72.76
62632;BME280;48703;51.248;-0.546;2023-03-14T04:57:52;98974;;;4.67;73.15
62632;BME280;48703;51.248;-0.546;2023-03-14T05:00:54;98977;;;4.68;73.58
62632;BME280;48703;51.248;-0.546;2023-03-14T05:03:56;98979;;;4.66;73.20
62632;BME280;48703;51.248;-0.546;2023-03-14T05:06:58;98979;;;4.62;72.96
62632;BME280;48703;51.248;-0.546;2023-03-14T05:10:00;98983;;;4.60;74.18
62632;BME280;48703;51.248;-0.546;2023-03-14T05:13:02;98985;;;4.59;74.57
62632;BME280;48703;51.248;-0.546;2023-03-14T05:16:04;98992;;;4.57;75.36
62632;BME280;48703;51.248;-0.546;2023-03-14T05:19:06;98997;;;4.54;75.18
62632;BME280;48703;51.248;-0.546;2023-03-14T05:22:08;99001;;;4.51;74.65
62632;BME280;48703;51.248;-0.546;2023-03-14T05:25:10;99004;;;4.49;76.19
62632;BME280;48703;51.248;-0.546;2023-03-14T05:28:12;99008;;;4.48;75.28
62632;BME280;48703;51.248;-0.546;2023-03-14T05:31:14;99022;;;4.45;75.51
62632;BME280;48703;51.248;-0.546;2023-03-14T05:34:16;99031;;;4.43;75.08
62632;BME280;48703;51.248;-0.546;2023-03-14T05:37:18;99042;;;4.43;74.73
62632;BME280;48703;51.248;-0.546;2023-03-14T05:40:20;99053;;;4.43;75.01
62632;BME280;48703;51.248;-0.546;2023-03-14T05:43:22;99063;;;4.41;75.64
62632;BME280;48703;51.248;-0.546;2023-03-14T05:46:24;99071;;;4.40;76.27
62632;BME280;48703;51.248;-0.546;2023-03-14T05:49:26;99077;;;4.38;75.81
62632;BME280;48703;51.248;-0.546;2023-03-14T05:52:28;99079;;;4.37;76.35
62632;BME280;48703;51.248;-0.546;2023-03-14T05:55:30;99086;;;4.35;76.82
62632;BME280;48703;51.248;-0.546;2023-03-14T05:58:32;99093;;;4.32;76.65
62632;BME280;48703;51.248;-0.546;2023-03-14T06:01:34;99098;;;4.30;76.82
62632;BME280;48703;51.248;-0.546;2023-03-14T06:04:36;99108;;;4.28;77.56
62632;BME280;48703;51.248;-0.546;2023-03-14T06:07:38;99112;;;4.26;78.07
62632;BME280;48703;51.248;-0.546;2023-03-14T06:10:40;99119;;;4.23;77.97
62632;BME280;48703;51.248;-0.546;2023-03-14T06:13:42;99126;;;4.21;78.60
62632;BME280;48703;51.248;-0.546;2023-03-14T06:16:44;99134;;;4.19;78.58
62632;BME280;48703;51.248;-0.546;2023-03-14T06:19:46;99144;;;4.16;78.97
62632;BME280;48703;51.248;-0.546;2023-03-14T06:22:48;99148;;;4.12;78.81
62632;BME280;48703;51.248;-0.546;2023-03-14T06:25:50;99155;;;4.11;79.02
62632;BME280;48703;51.248;-0.546;2023-03-14T06:28:52;99160;;;4.09;79.34
62632;BME280;48703;51.248;-0.546;2023-03-14T06:31:54;99166;;;4.08;79.62
62632;BME280;48703;51.248;-0.546;2023-03-14T06:34:56;99173;;;4.06;79.88
62632;BME280;48703;51.248;-0.546;2023-03-14T06:37:58;99179;;;4.07;80.10
62632;BME280;48703;51.248;-0.546;2023-03-14T06:41:02;99186;;;4.06;80.14
62632;BME280;48703;51.248;-0.546;2023-03-14T06:44:02;99188;;;4.06;80.59
62632;BME280;48703;51.248;-0.546;2023-03-14T06:47:04;99191;;;4.05;80.68
62632;BME280;48703;51.248;-0.546;2023-03-14T06:50:07;99202;;;4.05;81.07
62632;BME280;48703;51.248;-0.546;2023-03-14T06:53:08;99216;;;4.05;80.97
62632;BME280;48703;51.248;-0.546;2023-03-14T06:56:10;99222;;;4.05;80.99
62632;BME280;48703;51.248;-0.546;2023-03-14T06:59:12;99230;;;4.08;81.22
62632;BME280;48703;51.248;-0.546;2023-03-14T07:02:14;99239;;;4.08;81.16
62632;BME280;48703;51.248;-0.546;2023-03-14T07:05:16;99245;;;4.10;80.97
62632;BME280;48703;51.248;-0.546;2023-03-14T07:08:18;99244;;;4.13;81.39
62632;BME280;48703;51.248;-0.546;2023-03-14T07:11:20;99260;;;4.14;80.59
62632;BME280;48703;51.248;-0.546;2023-03-14T07:14:22;99268;;;4.16;80.47
62632;BME280;48703;51.248;-0.546;2023-03-14T07:17:24;99285;;;4.20;79.90
62632;BME280;48703;51.248;-0.546;2023-03-14T07:20:26;99293;;;4.26;80.15
62632;BME280;48703;51.248;-0.546;2023-03-14T07:23:28;99303;;;4.29;80.24
62632;BME280;48703;51.248;-0.546;2023-03-14T07:26:30;99308;;;4.34;80.17
62632;BME280;48703;51.248;-0.546;2023-03-14T07:29:32;99318;;;4.37;79.76
62632;BME280;48703;51.248;-0.546;2023-03-14T07:32:34;99329;;;4.40;79.96
62632;BME280;48703;51.248;-0.546;2023-03-14T07:35:36;99337;;;4.43;79.61
62632;BME280;48703;51.248;-0.546;2023-03-14T07:38:38;99346;;;4.45;79.43
62632;BME280;48703;51.248;-0.546;2023-03-14T07:41:40;99355;;;4.47;79.17
62632;BME280;48703;51.248;-0.546;2023-03-14T07:44:42;99361;;;4.49;79.55
62632;BME280;48703;51.248;-0.546;2023-03-14T07:47:44;99369;;;4.49;79.08
62632;BME280;48703;51.248;-0.546;2023-03-14T07:50:47;99380;;;4.49;78.63
62632;BME280;48703;51.248;-0.546;2023-03-14T07:53:48;99391;;;4.51;78.88
62632;BME280;48703;51.248;-0.546;2023-03-14T07:56:50;99404;;;4.54;78.86
62632;BME280;48703;51.248;-0.546;2023-03-14T07:59:52;99412;;;4.56;78.49
62632;BME280;48703;51.248;-0.546;2023-03-14T08:02:54;99421;;;4.60;78.59
62632;BME280;48703;51.248;-0.546;2023-03-14T08:05:56;99434;;;4.63;78.02
62632;BME280;48703;51.248;-0.546;2023-03-14T08:08:58;99444;;;4.64;77.50
62632;BME280;48703;51.248;-0.546;2023-03-14T08:12:00;99461;;;4.68;77.46
62632;BME280;48703;51.248;-0.546;2023-03-14T08:15:02;99477;;;4.71;77.66
62632;BME280;48703;51.248;-0.546;2023-03-14T08:18:04;99483;;;4.75;77.38
62632;BME280;48703;51.248;-0.546;2023-03-14T08:21:06;99492;;;4.78;77.13
62632;BME280;48703;51.248;-0.546;2023-03-14T08:24:08;99501;;;4.82;77.27
62632;BME280;48703;51.248;-0.546;2023-03-14T08:27:10;99514;;;4.85;77.02
62632;BME280;48703;51.248;-0.546;2023-03-14T08:30:13;99520;;;4.88;77.72
62632;BME280;48703;51.248;-0.546;2023-03-14T08:33:14;99527;;;4.89;77.10
62632;BME280;48703;51.248;-0.546;2023-03-14T08:36:16;99536;;;4.91;76.88
62632;BME280;48703;51.248;-0.546;2023-03-14T08:39:18;99545;;;4.97;77.08
62632;BME280;48703;51.248;-0.546;2023-03-14T08:42:20;99560;;;5.02;76.54
62632;BME280;48703;51.248;-0.546;2023-03-14T08:45:22;99568;;;5.07;76.99
62632;BME280;48703;51.248;-0.546;2023-03-14T08:48:24;99580;;;5.12;77.28
62632;BME280;48703;51.248;-0.546;2023-03-14T08:51:27;99593;;;5.14;77.22
62632;BME280;48703;51.248;-0.546;2023-03-14T08:54:28;99607;;;5.15;77.47
62632;BME280;48703;51.248;-0.546;2023-03-14T08:57:31;99617;;;5.15;77.99
62632;BME280;48703;51.248;-0.546;2023-03-14T09:00:32;99627;;;5.10;78.78
62632;BME280;48703;51.248;-0.546;2023-03-14T09:03:34;99641;;;5.02;79.11
62632;BME280;48703;51.248;-0.546;2023-03-14T09:06:36;99651;;;5.00;79.42
62632;BME280;48703;51.248;-0.546;2023-03-14T09:09:38;99664;;;4.97;79.84
62632;BME280;48703;51.248;-0.546;2023-03-14T09:12:40;99672;;;4.93;79.84
62632;BME280;48703;51.248;-0.546;2023-03-14T09:15:42;99684;;;4.91;80.09
62632;BME280;48703;51.248;-0.546;2023-03-14T09:18:44;99699;;;4.95;80.48
62632;BME280;48703;51.248;-0.546;2023-03-14T09:21:46;99715;;;4.90;79.31
62632;BME280;48703;51.248;-0.546;2023-03-14T09:24:48;99722;;;4.79;79.25
62632;BME280;48703;51.248;-0.546;2023-03-14T09:27:50;99735;;;4.76;80.09
62632;BME280;48703;51.248;-0.546;2023-03-14T09:30:52;99744;;;4.73;80.41
62632;BME280;48703;51.248;-0.546;2023-03-14T09:33:54;99758;;;4.75;80.11
62632;BME280;48703;51.248;-0.546;2023-03-14T09:36:56;99773;;;4.75;80.09
62632;BME280;48703;51.248;-0.546;2023-03-14T09:39:58;99783;;;4.77;80.24
62632;BME280;48703;51.248;-0.546;2023-03-14T09:43:01;99799;;;4.69;79.00
62632;BME280;48703;51.248;-0.546;2023-03-14T09:46:03;99810;;;4.59;79.03
62632;BME280;48703;51.248;-0.546;2023-03-14T09:49:08;99821;;;4.56;79.47
62632;BME280;48703;51.248;-0.546;2023-03-14T09:52:10;99834;;;4.56;79.22
62632;BME280;48703;51.248;-0.546;2023-03-14T09:55:10;99843;;;4.58;78.95
62632;BME280;48703;51.248;-0.546;2023-03-14T09:58:11;99852;;;4.59;79.27
62632;BME280;48703;51.248;-0.546;2023-03-14T10:01:13;99863;;;4.62;80.36
62632;BME280;48703;51.248;-0.546;2023-03-14T10:04:15;99871;;;4.68;81.16
62632;BME280;48703;51.248;-0.546;2023-03-14T10:07:17;99883;;;4.75;81.91
62632;BME280;48703;51.248;-0.546;2023-03-14T10:10:19;99898;;;4.78;81.53
62632;BME280;48703;51.248;-0.546;2023-03-14T10:13:21;99908;;;4.73;81.01
62632;BME280;48703;51.248;-0.546;2023-03-14T10:16:24;99911;;;4.75;81.70
62632;BME280;48703;51.248;-0.546;2023-03-14T10:19:25;99915;;;4.74;80.38
62632;BME280;48703;51.248;-0.546;2023-03-14T10:22:27;99924;;;4.79;81.49
62632;BME280;48703;51.248;-0.546;2023-03-14T10:25:29;99937;;;4.83;81.30
62632;BME280;48703;51.248;-0.546;2023-03-14T10:28:32;99941;;;4.87;80.44
62632;BME280;48703;51.248;-0.546;2023-03-14T10:31:45;99945;;;4.91;81.52
62632;BME280;48703;51.248;-0.546;2023-03-14T10:34:35;99954;;;4.89;80.25
62632;BME280;48703;51.248;-0.546;2023-03-14T10:37:42;99961;;;4.86;81.38
62632;BME280;48703;51.248;-0.546;2023-03-14T10:40:39;99966;;;4.88;80.16
62632;BME280;48703;51.248;-0.546;2023-03-14T10:43:41;99968;;;4.96;81.21
62632;BME280;48703;51.248;-0.546;2023-03-14T10:46:43;99983;;;5.01;80.96
62632;BME280;48703;51.248;-0.546;2023-03-14T10:49:45;99992;;;4.99;79.91
62632;BME280;48703;51.248;-0.546;2023-03-14T10:52:47;99998;;;4.96;79.57
62632;BME280;48703;51.248;-0.546;2023-03-14T10:55:49;100001;;;4.99;80.49
62632;BME280;48703;51.248;-0.546;2023-03-14T10:58:52;100008;;;5.06;79.09
62632;BME280;48703;51.248;-0.546;2023-03-14T11:01:54;100015;;;5.21;80.83
62632;BME280;48703;51.248;-0.546;2023-03-14T11:04:57;100018;;;5.32;78.40
62632;BME280;48703;51.248;-0.546;2023-03-14T11:07:58;100026;;;5.44;78.45
62632;BME280;48703;51.248;-0.546;2023-03-14T11:11:02;100031;;;5.53;79.04
62632;BME280;48703;51.248;-0.546;2023-03-14T11:14:05;100036;;;5.67;78.21
62632;BME280;48703;51.248;-0.546;2023-03-14T11:17:04;100045;;;5.68;77.27
62632;BME280;48703;51.248;-0.546;2023-03-14T11:20:10;100053;;;5.71;76.84
62632;BME280;48703;51.248;-0.546;2023-03-14T11:23:08;100056;;;5.74;76.72
62632;BME280;48703;51.248;-0.546;2023-03-14T11:26:13;100058;;;5.82;76.79
62632;BME280;48703;51.248;-0.546;2023-03-14T11:29:14;100061;;;5.91;76.37
62632;BME280;48703;51.248;-0.546;2023-03-14T11:32:13;100063;;;6.03;74.50
62632;BME280;48703;51.248;-0.546;2023-03-14T11:35:17;100065;;;6.12;74.38
62632;BME280;48703;51.248;-0.546;2023-03-14T11:38:22;100071;;;6.16;74.54
62632;BME280;48703;51.248;-0.546;2023-03-14T11:41:19;100079;;;6.21;74.89
62632;BME280;48703;51.248;-0.546;2023-03-14T11:44:22;100084;;;6.24;74.02
62632;BME280;48703;51.248;-0.546;2023-03-14T11:47:24;100090;;;6.26;73.92
62632;BME280;48703;51.248;-0.546;2023-03-14T11:50:25;100099;;;6.29;71.45
62632;BME280;48703;51.248;-0.546;2023-03-14T11:53:33;100105;;;6.38;68.68
62632;BME280;48703;51.248;-0.546;2023-03-14T11:56:31;100110;;;6.41;70.03
62632;BME280;48703;51.248;-0.546;2023-03-14T11:59:32;100119;;;6.47;70.76
62632;BME280;48703;51.248;-0.546;2023-03-14T12:02:34;100129;;;6.54;70.40
62632;BME280;48703;51.248;-0.546;2023-03-14T12:05:38;100129;;;6.58;71.22
62632;BME280;48703;51.248;-0.546;2023-03-14T12:08:38;100128;;;6.67;71.06
62632;BME280;48703;51.248;-0.546;2023-03-14T12:11:40;100137;;;6.77;67.58
62632;BME280;48703;51.248;-0.546;2023-03-14T12:14:44;100139;;;6.87;66.33
62632;BME280;48703;51.248;-0.546;2023-03-14T12:17:43;100142;;;6.84;67.36
62632;BME280;48703;51.248;-0.546;2023-03-14T12:20:50;100151;;;6.91;67.15
62632;BME280;48703;51.248;-0.546;2023-03-14T12:23:48;100154;;;6.98;66.45
62632;BME280;48703;51.248;-0.546;2023-03-14T12:26:52;100166;;;7.00;66.07
62632;BME280;48703;51.248;-0.546;2023-03-14T12:29:57;100169;;;7.00;66.32
62632;BME280;48703;51.248;-0.546;2023-03-14T12:33:10;100172;;;6.99;65.32
62632;BME280;48703;51.248;-0.546;2023-03-14T12:35:57;100177;;;6.96;65.22
62632;BME280;48703;51.248;-0.546;2023-03-14T12:39:00;100186;;;6.98;65.12
62632;BME280;48703;51.248;-0.546;2023-03-14T12:42:01;100187;;;6.93;65.15
62632;BME280;48703;51.248;-0.546;2023-03-14T12:45:13;100193;;;6.95;64.46
62632;BME280;48703;51.248;-0.546;2023-03-14T12:48:07;100194;;;6.92;63.78
62632;BME280;48703;51.248;-0.546;2023-03-14T12:51:12;100199;;;6.97;64.55
62632;BME280;48703;51.248;-0.546;2023-03-14T12:54:39;100201;;;7.04;63.98
62632;BME280;48703;51.248;-0.546;2023-03-14T12:57:11;100204;;;7.03;64.18
62632;BME280;48703;51.248;-0.546;2023-03-14T13:00:16;100208;;;6.99;63.08
62632;BME280;48703;51.248;-0.546;2023-03-14T13:03:17;100205;;;6.94;62.63
62632;BME280;48703;51.248;-0.546;2023-03-14T13:06:44;100210;;;6.96;63.23
62632;BME280;48703;51.248;-0.546;2023-03-14T13:09:52;100211;;;7.03;63.62
62632;BME280;48703;51.248;-0.546;2023-03-14T13:12:22;100209;;;7.11;63.26
62632;BME280;48703;51.248;-0.546;2023-03-14T13:15:22;100213;;;7.17;59.92
62632;BME280;48703;51.248;-0.546;2023-03-14T13:18:26;100216;;;7.24;60.16
62632;BME280;48703;51.248;-0.546;2023-03-14T13:21:25;100216;;;7.33;61.46
62632;BME280;48703;51.248;-0.546;2023-03-14T13:24:27;100220;;;7.47;62.11
62632;BME280;48703;51.248;-0.546;2023-03-14T13:27:30;100214;;;7.50;61.08
62632;BME280;48703;51.248;-0.546;2023-03-14T13:30:38;100214;;;7.49;60.11
62632;BME280;48703;51.248;-0.546;2023-03-14T13:33:33;100212;;;7.51;60.50
62632;BME280;48703;51.248;-0.546;2023-03-14T13:36:35;100220;;;7.53;57.06
62632;BME280;48703;51.248;-0.546;2023-03-14T13:39:37;100223;;;7.66;55.72
62632;BME280;48703;51.248;-0.546;2023-03-14T13:42:39;100226;;;7.72;53.99
62632;BME280;48703;51.248;-0.546;2023-03-14T13:45:43;100227;;;7.68;52.33
62632;BME280;48703;51.248;-0.546;2023-03-14T13:48:44;100230;;;7.80;53.43
62632;BME280;48703;51.248;-0.546;2023-03-14T13:51:45;100230;;;7.96;53.67
62632;BME280;48703;51.248;-0.546;2023-03-14T13:54:47;100233;;;8.07;53.52
62632;BME280;48703;51.248;-0.546;2023-03-14T13:57:51;100235;;;8.14;51.41
62632;BME280;48703;51.248;-0.546;2023-03-14T14:01:02;100239;;;8.23;52.13
62632;BME280;48703;51.248;-0.546;2023-03-14T14:03:55;100241;;;8.28;51.28
62632;BME280;48703;51.248;-0.546;2023-03-14T14:06:56;100250;;;8.29;47.79
62632;BME280;48703;51.248;-0.546;2023-03-14T14:09:58;100259;;;8.30;51.45
62632;BME280;48703;51.248;-0.546;2023-03-14T14:13:00;100264;;;8.37;50.36
62632;BME280;48703;51.248;-0.546;2023-03-14T14:16:01;100267;;;8.45;47.52
62632;BME280;48703;51.248;-0.546;2023-03-14T14:19:03;100277;;;8.50;48.65
62632;BME280;48703;51.248;-0.546;2023-03-14T14:22:05;100287;;;8.61;51.64
62632;BME280;48703;51.248;-0.546;2023-03-14T14:25:12;100295;;;8.64;48.99
62632;BME280;48703;51.248;-0.546;2023-03-14T14:28:23;100297;;;8.70;47.82
62632;BME280;48703;51.248;-0.546;2023-03-14T14:31:24;100301;;;8.65;48.49
62632;BME280;48703;51.248;-0.546;2023-03-14T14:34:19;100307;;;8.68;49.19
62632;BME280;48703;51.248;-0.546;2023-03-14T14:37:19;100308;;;8.84;50.29
62632;BME280;48703;51.248;-0.546;2023-03-14T14:40:18;100311;;;8.99;48.48
62632;BME280;48703;51.248;-0.546;2023-03-14T14:43:21;100311;;;9.14;49.61
62632;BME280;48703;51.248;-0.546;2023-03-14T14:46:21;100321;;;9.26;46.63
62632;BME280;48703;51.248;-0.546;2023-03-14T14:49:28;100334;;;9.29;46.15
62632;BME280;48703;51.248;-0.546;2023-03-14T14:52:30;100335;;;9.30;44.54
62632;BME280;48703;51.248;-0.546;2023-03-14T14:55:30;100334;;;9.32;46.36
62632;BME280;48703;51.248;-0.546;2023-03-14T14:58:33;100339;;;9.35;46.09
62632;BME280;48703;51.248;-0.546;2023-03-14T15:01:32;100339;;;9.33;45.01
62632;BME280;48703;51.248;-0.546;2023-03-14T15:04:33;100345;;;9.34;45.64
62632;BME280;48703;51.248;-0.546;2023-03-14T15:07:35;100348;;;9.37;47.80
62632;BME280;48703;51.248;-0.546;2023-03-14T15:10:37;100355;;;9.43;47.18
62632;BME280;48703;51.248;-0.546;2023-03-14T15:13:39;100355;;;9.32;47.64
62632;BME280;48703;51.248;-0.546;2023-03-14T15:16:41;100354;;;9.23;48.56
62632;BME280;48703;51.248;-0.546;2023-03-14T15:19:43;100357;;;9.33;49.36
62632;BME280;48703;51.248;-0.546;2023-03-14T15:22:45;100353;;;9.46;48.24
62632;BME280;48703;51.248;-0.546;2023-03-14T15:25:48;100350;;;9.57;49.07
62632;BME280;48703;51.248;-0.546;2023-03-14T15:28:49;100349;;;9.51;45.41
62632;BME280;48703;51.248;-0.546;2023-03-14T15:31:51;100352;;;9.55;47.16
62632;BME280;48703;51.248;-0.546;2023-03-14T15:34:54;100361;;;9.42;44.97
62632;BME280;48703;51.248;-0.546;2023-03-14T15:37:55;100363;;;9.35;46.13
62632;BME280;48703;51.248;-0.546;2023-03-14T15:40:57;100360;;;9.36;46.57
62632;BME280;48703;51.248;-0.546;2023-03-14T15:43:59;100357;;;9.52;47.61
62632;BME280;48703;51.248;-0.546;2023-03-14T15:47:02;100359;;;9.61;48.11
62632;BME280;48703;51.248;-0.546;2023-03-14T15:50:04;100361;;;9.64;46.61
62632;BME280;48703;51.248;-0.546;2023-03-14T15:53:05;100363;;;9.67;48.35
62632;BME280;48703;51.248;-0.546;2023-03-14T15:56:10;100365;;;9.54;48.85
62632;BME280;48703;51.248;-0.546;2023-03-14T15:59:10;100368;;;9.48;47.71
62632;BME280;48703;51.248;-0.546;2023-03-14T16:02:12;100365;;;9.49;48.06
62632;BME280;48703;51.248;-0.546;2023-03-14T16:05:14;100365;;;9.58;48.93
62632;BME280;48703;51.248;-0.546;2023-03-14T16:08:16;100371;;;9.66;49.02
62632;BME280;48703;51.248;-0.546;2023-03-14T16:11:18;100370;;;9.71;47.76
62632;BME280;48703;51.248;-0.546;2023-03-14T16:14:20;100371;;;9.62;46.04
62632;BME280;48703;51.248;-0.546;2023-03-14T16:17:22;100370;;;9.60;46.52
62632;BME280;48703;51.248;-0.546;2023-03-14T16:20:24;100369;;;9.60;49.63
62632;BME280;48703;51.248;-0.546;2023-03-14T16:23:26;100373;;;9.45;47.15
62632;BME280;48703;51.248;-0.546;2023-03-14T16:26:28;100378;;;9.34;46.89
62632;BME280;48703;51.248;-0.546;2023-03-14T16:29:30;100381;;;9.19;46.64
62632;BME280;48703;51.248;-0.546;2023-03-14T16:32:32;100378;;;9.10;50.42
62632;BME280;48703;51.248;-0.546;2023-03-14T16:35:34;100382;;;9.05;48.57
62632;BME280;48703;51.248;-0.546;2023-03-14T16:38:36;100381;;;9.05;48.93